sensor_id;sensor_type;location;lat;lon;timestamp;temperature;humidity
6486;DHT22;3276;48.490;9.222;2022-11-06T00:00:55;3.50;41.10
6486;DHT22;3276;48.490;9.222;2022-11-06T00:03:22;3.50;41.60
6486;DHT22;3276;48.490;9.222;2022-11-06T00:05:47;3.50;40.90
6486;DHT22;3276;48.490;9.222;2022-11-06T00:08:34;3.50;40.90
6486;DHT22;3276;48.490;9.222;2022-11-06T00:11:00;3.60;40.90
6486;DHT22;3276;48.490;9.222;2022-11-06T00:13:26;3.60;40.90
6486;DHT22;3276;48.490;9.222;2022-11-06T00:15:52;3.60;41.10
6486;DHT22;3276;48.490;9.222;2022-11-06T00:18:18;3.70;40.80
6486;DHT22;3276;48.490;9.222;2022-11-06T00:20:43;3.60;40.40
6486;DHT22;3276;48.490;9.222;2022-11-06T00:23:09;3.50;40.90
6486;DHT22;3276;48.490;9.222;2022-11-06T00:25:38;3.50;40.90
6486;DHT22;3276;48.490;9.222;2022-11-06T00:28:04;3.40;40.80
6486;DHT22;3276;48.490;9.222;2022-11-06T00:30:29;3.40;41.60
6486;DHT22;3276;48.490;9.222;2022-11-06T00:32:56;3.50;40.50
6486;DHT22;3276;48.490;9.222;2022-11-06T00:35:21;3.50;41.10
6486;DHT22;3276;48.490;9.222;2022-11-06T00:37:47;3.40;40.70
6486;DHT22;3276;48.490;9.222;2022-11-06T00:40:13;3.40;42.30
6486;DHT22;3276;48.490;9.222;2022-11-06T00:42:38;3.40;41.90
6486;DHT22;3276;48.490;9.222;2022-11-06T00:45:04;3.50;42.50
6486;DHT22;3276;48.490;9.222;2022-11-06T00:47:30;3.50;42.00
6486;DHT22;3276;48.490;9.222;2022-11-06T00:49:55;3.50;40.60
6486;DHT22;3276;48.490;9.222;2022-11-06T00:52:21;3.50;40.90
6486;DHT22;3276;48.490;9.222;2022-11-06T00:54:46;3.50;40.10
6486;DHT22;3276;48.490;9.222;2022-11-06T00:57:12;3.50;39.60
6486;DHT22;3276;48.490;9.222;2022-11-06T00:59:38;3.50;39.60
6486;DHT22;3276;48.490;9.222;2022-11-06T01:02:03;3.40;39.00
6486;DHT22;3276;48.490;9.222;2022-11-06T01:04:29;3.40;39.70
6486;DHT22;3276;48.490;9.222;2022-11-06T01:06:54;3.30;38.90
6486;DHT22;3276;48.490;9.222;2022-11-06T01:09:25;3.20;39.10
6486;DHT22;3276;48.490;9.222;2022-11-06T01:11:54;3.10;40.00
6486;DHT22;3276;48.490;9.222;2022-11-06T01:14:21;3.00;40.70
6486;DHT22;3276;48.490;9.222;2022-11-06T01:16:47;2.90;40.30
6486;DHT22;3276;48.490;9.222;2022-11-06T01:19:14;2.80;41.60
6486;DHT22;3276;48.490;9.222;2022-11-06T01:21:41;2.80;41.40
6486;DHT22;3276;48.490;9.222;2022-11-06T01:24:11;2.80;41.80
6486;DHT22;3276;48.490;9.222;2022-11-06T01:26:37;2.70;41.20
6486;DHT22;3276;48.490;9.222;2022-11-06T01:29:04;2.60;41.90
6486;DHT22;3276;48.490;9.222;2022-11-06T01:31:31;2.60;42.70
6486;DHT22;3276;48.490;9.222;2022-11-06T01:33:58;2.60;42.90
6486;DHT22;3276;48.490;9.222;2022-11-06T01:36:25;2.60;42.80
6486;DHT22;3276;48.490;9.222;2022-11-06T01:38:54;2.60;42.80
6486;DHT22;3276;48.490;9.222;2022-11-06T01:41:23;2.50;43.00
6486;DHT22;3276;48.490;9.222;2022-11-06T01:43:52;2.50;43.40
6486;DHT22;3276;48.490;9.222;2022-11-06T01:46:26;2.60;43.60
6486;DHT22;3276;48.490;9.222;2022-11-06T01:49:13;2.60;44.00
6486;DHT22;3276;48.490;9.222;2022-11-06T01:51:49;2.70;44.70
6486;DHT22;3276;48.490;9.222;2022-11-06T01:54:17;2.80;44.90
6486;DHT22;3276;48.490;9.222;2022-11-06T01:56:46;2.70;44.80
6486;DHT22;3276;48.490;9.222;2022-11-06T01:59:15;2.70;45.30
6486;DHT22;3276;48.490;9.222;2022-11-06T02:01:42;2.80;45.00
6486;DHT22;3276;48.490;9.222;2022-11-06T02:04:21;2.80;44.50
6486;DHT22;3276;48.490;9.222;2022-11-06T02:06:47;2.80;44.60
6486;DHT22;3276;48.490;9.222;2022-11-06T02:09:14;2.80;44.60
6486;DHT22;3276;48.490;9.222;2022-11-06T02:11:42;2.80;46.30
6486;DHT22;3276;48.490;9.222;2022-11-06T02:14:24;2.80;44.40
6486;DHT22;3276;48.490;9.222;2022-11-06T02:17:11;2.80;45.80
6486;DHT22;3276;48.490;9.222;2022-11-06T02:19:56;3.00;45.70
6486;DHT22;3276;48.490;9.222;2022-11-06T02:22:59;3.10;44.50
6486;DHT22;3276;48.490;9.222;2022-11-06T02:25:39;3.10;44.40
6486;DHT22;3276;48.490;9.222;2022-11-06T02:28:32;3.10;43.70
6486;DHT22;3276;48.490;9.222;2022-11-06T02:31:02;3.00;42.40
6486;DHT22;3276;48.490;9.222;2022-11-06T02:33:35;3.00;42.30
6486;DHT22;3276;48.490;9.222;2022-11-06T02:36:06;3.10;42.90
6486;DHT22;3276;48.490;9.222;2022-11-06T02:38:42;3.10;42.80
6486;DHT22;3276;48.490;9.222;2022-11-06T02:41:15;3.10;42.70
6486;DHT22;3276;48.490;9.222;2022-11-06T02:43:46;3.00;43.10
6486;DHT22;3276;48.490;9.222;2022-11-06T02:48:55;3.00;42.90
6486;DHT22;3276;48.490;9.222;2022-11-06T02:51:25;3.00;41.60
6486;DHT22;3276;48.490;9.222;2022-11-06T02:53:53;2.90;41.40
6486;DHT22;3276;48.490;9.222;2022-11-06T02:56:26;2.70;41.20
6486;DHT22;3276;48.490;9.222;2022-11-06T02:58:54;2.60;42.00
6486;DHT22;3276;48.490;9.222;2022-11-06T03:01:28;2.60;41.30
6486;DHT22;3276;48.490;9.222;2022-11-06T03:03:58;2.60;42.50
6486;DHT22;3276;48.490;9.222;2022-11-06T03:08:59;2.70;42.90
6486;DHT22;3276;48.490;9.222;2022-11-06T03:11:28;2.60;43.30
6486;DHT22;3276;48.490;9.222;2022-11-06T03:14:14;2.60;42.90
6486;DHT22;3276;48.490;9.222;2022-11-06T03:19:22;2.60;43.50
6486;DHT22;3276;48.490;9.222;2022-11-06T03:24:33;2.40;43.20
6486;DHT22;3276;48.490;9.222;2022-11-06T03:27:04;2.40;43.40
6486;DHT22;3276;48.490;9.222;2022-11-06T03:29:38;2.40;43.30
6486;DHT22;3276;48.490;9.222;2022-11-06T03:32:16;2.40;42.60
6486;DHT22;3276;48.490;9.222;2022-11-06T03:34:58;2.30;42.80
6486;DHT22;3276;48.490;9.222;2022-11-06T03:37:29;2.20;43.30
6486;DHT22;3276;48.490;9.222;2022-11-06T03:39:59;2.10;43.10
6486;DHT22;3276;48.490;9.222;2022-11-06T03:42:28;2.00;43.60
6486;DHT22;3276;48.490;9.222;2022-11-06T03:44:58;2.00;43.70
6486;DHT22;3276;48.490;9.222;2022-11-06T03:47:50;2.00;43.30
6486;DHT22;3276;48.490;9.222;2022-11-06T03:50:35;2.00;42.50
6486;DHT22;3276;48.490;9.222;2022-11-06T03:55:32;1.80;42.00
6486;DHT22;3276;48.490;9.222;2022-11-06T03:58:04;1.80;42.20
6486;DHT22;3276;48.490;9.222;2022-11-06T04:00:33;1.80;42.20
6486;DHT22;3276;48.490;9.222;2022-11-06T04:03:04;1.80;42.20
6486;DHT22;3276;48.490;9.222;2022-11-06T04:05:38;1.80;41.90
6486;DHT22;3276;48.490;9.222;2022-11-06T04:08:06;1.70;41.20
6486;DHT22;3276;48.490;9.222;2022-11-06T04:10:57;1.60;42.10
6486;DHT22;3276;48.490;9.222;2022-11-06T04:13:44;1.50;41.10
6486;DHT22;3276;48.490;9.222;2022-11-06T04:16:28;1.40;41.50
6486;DHT22;3276;48.490;9.222;2022-11-06T04:18:56;1.40;41.40
6486;DHT22;3276;48.490;9.222;2022-11-06T04:21:47;1.40;43.50
6486;DHT22;3276;48.490;9.222;2022-11-06T04:24:41;1.40;43.40
6486;DHT22;3276;48.490;9.222;2022-11-06T04:30:13;1.30;42.30
6486;DHT22;3276;48.490;9.222;2022-11-06T04:33:33;1.20;42.90
6486;DHT22;3276;48.490;9.222;2022-11-06T04:38:43;1.40;43.50
6486;DHT22;3276;48.490;9.222;2022-11-06T04:41:19;1.50;42.90
6486;DHT22;3276;48.490;9.222;2022-11-06T04:44:07;1.40;43.40
6486;DHT22;3276;48.490;9.222;2022-11-06T04:46:47;1.40;42.10
6486;DHT22;3276;48.490;9.222;2022-11-06T04:49:14;1.40;42.00
6486;DHT22;3276;48.490;9.222;2022-11-06T04:51:42;1.40;42.30
6486;DHT22;3276;48.490;9.222;2022-11-06T04:54:11;1.40;42.90
6486;DHT22;3276;48.490;9.222;2022-11-06T04:56:37;1.30;42.20
6486;DHT22;3276;48.490;9.222;2022-11-06T04:59:03;1.30;42.70
6486;DHT22;3276;48.490;9.222;2022-11-06T05:01:29;1.20;42.40
6486;DHT22;3276;48.490;9.222;2022-11-06T05:03:55;1.20;42.80
6486;DHT22;3276;48.490;9.222;2022-11-06T05:06:20;1.20;42.70
6486;DHT22;3276;48.490;9.222;2022-11-06T05:08:46;1.10;43.10
6486;DHT22;3276;48.490;9.222;2022-11-06T05:11:11;1.10;43.10
6486;DHT22;3276;48.490;9.222;2022-11-06T05:13:37;1.10;43.20
6486;DHT22;3276;48.490;9.222;2022-11-06T05:16:04;1.10;44.30
6486;DHT22;3276;48.490;9.222;2022-11-06T05:18:29;1.00;42.40
6486;DHT22;3276;48.490;9.222;2022-11-06T05:21:00;1.10;44.10
6486;DHT22;3276;48.490;9.222;2022-11-06T05:23:44;1.00;43.70
6486;DHT22;3276;48.490;9.222;2022-11-06T05:26:10;1.10;44.90
6486;DHT22;3276;48.490;9.222;2022-11-06T05:28:36;1.10;44.90
6486;DHT22;3276;48.490;9.222;2022-11-06T05:31:01;1.10;44.90
6486;DHT22;3276;48.490;9.222;2022-11-06T05:33:27;1.10;44.90
6486;DHT22;3276;48.490;9.222;2022-11-06T05:35:53;1.20;46.20
6486;DHT22;3276;48.490;9.222;2022-11-06T05:38:18;1.20;45.80
6486;DHT22;3276;48.490;9.222;2022-11-06T05:40:44;1.20;45.00
6486;DHT22;3276;48.490;9.222;2022-11-06T05:43:10;1.10;45.40
6486;DHT22;3276;48.490;9.222;2022-11-06T05:45:36;1.00;47.00
6486;DHT22;3276;48.490;9.222;2022-11-06T05:48:01;1.00;47.30
6486;DHT22;3276;48.490;9.222;2022-11-06T05:50:27;1.10;47.40
6486;DHT22;3276;48.490;9.222;2022-11-06T05:52:52;1.20;45.90
6486;DHT22;3276;48.490;9.222;2022-11-06T05:55:18;1.10;44.90
6486;DHT22;3276;48.490;9.222;2022-11-06T05:57:43;1.20;45.50
6486;DHT22;3276;48.490;9.222;2022-11-06T06:00:10;1.10;44.90
6486;DHT22;3276;48.490;9.222;2022-11-06T06:02:36;1.00;44.80
6486;DHT22;3276;48.490;9.222;2022-11-06T06:05:03;1.10;46.00
6486;DHT22;3276;48.490;9.222;2022-11-06T06:07:29;1.20;45.40
6486;DHT22;3276;48.490;9.222;2022-11-06T06:09:55;1.20;45.00
6486;DHT22;3276;48.490;9.222;2022-11-06T06:12:20;1.20;45.90
6486;DHT22;3276;48.490;9.222;2022-11-06T06:14:48;1.30;45.10
6486;DHT22;3276;48.490;9.222;2022-11-06T06:17:14;1.20;45.00
6486;DHT22;3276;48.490;9.222;2022-11-06T06:19:39;1.40;45.70
6486;DHT22;3276;48.490;9.222;2022-11-06T06:22:05;1.40;45.20
6486;DHT22;3276;48.490;9.222;2022-11-06T06:24:31;1.40;43.50
6486;DHT22;3276;48.490;9.222;2022-11-06T06:26:56;1.30;45.10
6486;DHT22;3276;48.490;9.222;2022-11-06T06:29:22;1.30;43.80
6486;DHT22;3276;48.490;9.222;2022-11-06T06:31:47;1.30;45.10
6486;DHT22;3276;48.490;9.222;2022-11-06T06:34:14;1.40;45.20
6486;DHT22;3276;48.490;9.222;2022-11-06T06:36:40;1.40;45.20
6486;DHT22;3276;48.490;9.222;2022-11-06T06:39:05;1.40;43.60
6486;DHT22;3276;48.490;9.222;2022-11-06T06:41:31;1.20;43.80
6486;DHT22;3276;48.490;9.222;2022-11-06T06:43:57;1.20;45.00
6486;DHT22;3276;48.490;9.222;2022-11-06T06:46:23;1.20;45.00
6486;DHT22;3276;48.490;9.222;2022-11-06T06:48:48;1.20;45.00
6486;DHT22;3276;48.490;9.222;2022-11-06T06:51:14;1.20;45.80
6486;DHT22;3276;48.490;9.222;2022-11-06T06:53:39;1.40;46.20
6486;DHT22;3276;48.490;9.222;2022-11-06T06:56:05;1.50;46.80
6486;DHT22;3276;48.490;9.222;2022-11-06T06:58:31;1.60;46.60
6486;DHT22;3276;48.490;9.222;2022-11-06T07:01:02;1.80;47.40
6486;DHT22;3276;48.490;9.222;2022-11-06T07:03:28;1.90;46.50
6486;DHT22;3276;48.490;9.222;2022-11-06T07:05:55;2.00;45.70
6486;DHT22;3276;48.490;9.222;2022-11-06T07:08:20;2.10;44.20
6486;DHT22;3276;48.490;9.222;2022-11-06T07:10:46;2.10;43.40
6486;DHT22;3276;48.490;9.222;2022-11-06T07:13:11;2.20;42.30
6486;DHT22;3276;48.490;9.222;2022-11-06T07:15:37;2.20;42.70
6486;DHT22;3276;48.490;9.222;2022-11-06T07:18:04;2.20;40.90
6486;DHT22;3276;48.490;9.222;2022-11-06T07:20:31;2.30;39.50
6486;DHT22;3276;48.490;9.222;2022-11-06T07:22:56;2.30;40.20
6486;DHT22;3276;48.490;9.222;2022-11-06T07:25:23;2.20;40.00
6486;DHT22;3276;48.490;9.222;2022-11-06T07:27:49;2.20;40.80
6486;DHT22;3276;48.490;9.222;2022-11-06T07:30:15;2.20;39.20
6486;DHT22;3276;48.490;9.222;2022-11-06T07:32:40;2.30;39.50
6486;DHT22;3276;48.490;9.222;2022-11-06T07:35:06;2.30;39.00
6486;DHT22;3276;48.490;9.222;2022-11-06T07:37:32;2.30;40.40
6486;DHT22;3276;48.490;9.222;2022-11-06T07:39:58;2.40;39.50
6486;DHT22;3276;48.490;9.222;2022-11-06T07:42:24;2.50;39.90
6486;DHT22;3276;48.490;9.222;2022-11-06T07:44:49;2.50;39.40
6486;DHT22;3276;48.490;9.222;2022-11-06T07:47:18;2.60;39.40
6486;DHT22;3276;48.490;9.222;2022-11-06T07:49:44;2.50;38.80
6486;DHT22;3276;48.490;9.222;2022-11-06T07:52:09;2.50;39.00
6486;DHT22;3276;48.490;9.222;2022-11-06T07:54:35;2.50;38.60
6486;DHT22;3276;48.490;9.222;2022-11-06T07:57:00;2.40;39.00
6486;DHT22;3276;48.490;9.222;2022-11-06T07:59:26;2.40;39.80
6486;DHT22;3276;48.490;9.222;2022-11-06T08:01:51;2.40;41.00
6486;DHT22;3276;48.490;9.222;2022-11-06T08:04:17;2.40;40.40
6486;DHT22;3276;48.490;9.222;2022-11-06T08:06:42;2.30;41.50
6486;DHT22;3276;48.490;9.222;2022-11-06T08:09:08;2.30;42.00
6486;DHT22;3276;48.490;9.222;2022-11-06T08:11:33;2.50;43.30
6486;DHT22;3276;48.490;9.222;2022-11-06T08:13:59;2.60;42.60
6486;DHT22;3276;48.490;9.222;2022-11-06T08:16:25;2.70;42.80
6486;DHT22;3276;48.490;9.222;2022-11-06T08:18:51;2.80;43.50
6486;DHT22;3276;48.490;9.222;2022-11-06T08:21:16;3.00;43.90
6486;DHT22;3276;48.490;9.222;2022-11-06T08:23:42;3.10;45.30
6486;DHT22;3276;48.490;9.222;2022-11-06T08:26:07;3.40;45.80
6486;DHT22;3276;48.490;9.222;2022-11-06T08:28:35;3.60;46.00
6486;DHT22;3276;48.490;9.222;2022-11-06T08:31:05;4.00;46.10
6486;DHT22;3276;48.490;9.222;2022-11-06T08:33:32;4.20;45.00
6486;DHT22;3276;48.490;9.222;2022-11-06T08:36:04;4.50;44.40
6486;DHT22;3276;48.490;9.222;2022-11-06T08:38:30;4.70;43.50
6486;DHT22;3276;48.490;9.222;2022-11-06T08:40:56;4.80;37.90
6486;DHT22;3276;48.490;9.222;2022-11-06T08:43:21;4.90;37.20
6486;DHT22;3276;48.490;9.222;2022-11-06T08:45:51;4.80;37.50
6486;DHT22;3276;48.490;9.222;2022-11-06T08:48:17;4.80;37.90
6486;DHT22;3276;48.490;9.222;2022-11-06T08:50:43;4.70;38.60
6486;DHT22;3276;48.490;9.222;2022-11-06T08:53:09;4.90;38.00
6486;DHT22;3276;48.490;9.222;2022-11-06T08:55:36;4.80;39.20
6486;DHT22;3276;48.490;9.222;2022-11-06T08:58:02;4.90;40.80
6486;DHT22;3276;48.490;9.222;2022-11-06T09:00:29;5.10;40.40
6486;DHT22;3276;48.490;9.222;2022-11-06T09:03:05;5.30;38.90
6486;DHT22;3276;48.490;9.222;2022-11-06T09:05:31;5.50;38.60
6486;DHT22;3276;48.490;9.222;2022-11-06T09:07:57;5.70;37.90
6486;DHT22;3276;48.490;9.222;2022-11-06T09:10:24;5.90;37.00
6486;DHT22;3276;48.490;9.222;2022-11-06T09:12:49;6.10;35.60
6486;DHT22;3276;48.490;9.222;2022-11-06T09:15:15;6.30;34.20
6486;DHT22;3276;48.490;9.222;2022-11-06T09:17:42;6.40;33.50
6486;DHT22;3276;48.490;9.222;2022-11-06T09:20:09;6.60;33.40
6486;DHT22;3276;48.490;9.222;2022-11-06T09:22:34;6.70;31.80
6486;DHT22;3276;48.490;9.222;2022-11-06T09:25:00;6.90;31.70
6486;DHT22;3276;48.490;9.222;2022-11-06T09:27:25;7.10;29.70
6486;DHT22;3276;48.490;9.222;2022-11-06T09:29:51;7.10;28.40
6486;DHT22;3276;48.490;9.222;2022-11-06T09:32:16;7.00;28.60
6486;DHT22;3276;48.490;9.222;2022-11-06T09:34:42;6.90;27.80
6486;DHT22;3276;48.490;9.222;2022-11-06T09:37:07;6.70;28.90
6486;DHT22;3276;48.490;9.222;2022-11-06T09:39:33;6.50;29.30
6486;DHT22;3276;48.490;9.222;2022-11-06T09:47:30;6.10;30.70
6486;DHT22;3276;48.490;9.222;2022-11-06T09:49:57;6.10;29.80
6486;DHT22;3276;48.490;9.222;2022-11-06T09:55:16;6.30;28.40
6486;DHT22;3276;48.490;9.222;2022-11-06T09:57:58;6.40;28.40
6486;DHT22;3276;48.490;9.222;2022-11-06T10:00:24;6.40;28.50
6486;DHT22;3276;48.490;9.222;2022-11-06T10:02:55;6.40;28.50
6486;DHT22;3276;48.490;9.222;2022-11-06T10:05:36;6.70;29.40
6486;DHT22;3276;48.490;9.222;2022-11-06T10:08:13;6.80;28.00
6486;DHT22;3276;48.490;9.222;2022-11-06T10:11:02;7.10;26.50
6486;DHT22;3276;48.490;9.222;2022-11-06T10:19:00;6.90;25.40
6486;DHT22;3276;48.490;9.222;2022-11-06T10:24:00;6.90;25.50
6486;DHT22;3276;48.490;9.222;2022-11-06T10:26:37;6.70;26.00
6486;DHT22;3276;48.490;9.222;2022-11-06T10:31:52;6.50;26.70
6486;DHT22;3276;48.490;9.222;2022-11-06T10:37:03;6.60;26.60
6486;DHT22;3276;48.490;9.222;2022-11-06T10:39:32;6.70;26.40
6486;DHT22;3276;48.490;9.222;2022-11-06T10:42:14;7.00;26.30
6486;DHT22;3276;48.490;9.222;2022-11-06T10:44:54;7.20;25.80
6486;DHT22;3276;48.490;9.222;2022-11-06T10:47:25;7.40;25.10
6486;DHT22;3276;48.490;9.222;2022-11-06T10:49:55;7.70;25.10
6486;DHT22;3276;48.490;9.222;2022-11-06T10:52:40;8.00;24.40
6486;DHT22;3276;48.490;9.222;2022-11-06T10:58:20;7.90;22.40
6486;DHT22;3276;48.490;9.222;2022-11-06T11:00:47;7.80;22.90
6486;DHT22;3276;48.490;9.222;2022-11-06T11:03:23;7.90;23.80
6486;DHT22;3276;48.490;9.222;2022-11-06T11:05:50;7.80;22.90
6486;DHT22;3276;48.490;9.222;2022-11-06T11:13:57;7.30;24.70
6486;DHT22;3276;48.490;9.222;2022-11-06T11:16:37;7.50;24.40
6486;DHT22;3276;48.490;9.222;2022-11-06T11:21:57;7.50;24.20
6486;DHT22;3276;48.490;9.222;2022-11-06T11:24:24;7.70;24.00
6486;DHT22;3276;48.490;9.222;2022-11-06T11:26:55;7.80;22.90
6486;DHT22;3276;48.490;9.222;2022-11-06T11:29:31;7.70;23.10
6486;DHT22;3276;48.490;9.222;2022-11-06T11:32:03;7.70;22.70
6486;DHT22;3276;48.490;9.222;2022-11-06T11:34:33;7.90;22.60
6486;DHT22;3276;48.490;9.222;2022-11-06T11:37:03;7.90;22.20
6486;DHT22;3276;48.490;9.222;2022-11-06T11:39:34;7.90;22.30
6486;DHT22;3276;48.490;9.222;2022-11-06T11:45:10;8.00;22.40
6486;DHT22;3276;48.490;9.222;2022-11-06T11:47:41;8.00;22.70
6486;DHT22;3276;48.490;9.222;2022-11-06T11:50:28;8.00;22.20
6486;DHT22;3276;48.490;9.222;2022-11-06T11:53:00;8.10;22.80
6486;DHT22;3276;48.490;9.222;2022-11-06T11:55:29;8.00;23.40
6486;DHT22;3276;48.490;9.222;2022-11-06T11:57:57;8.00;23.20
6486;DHT22;3276;48.490;9.222;2022-11-06T12:00:24;8.10;22.80
6486;DHT22;3276;48.490;9.222;2022-11-06T12:02:53;8.20;22.80
6486;DHT22;3276;48.490;9.222;2022-11-06T12:07:56;8.30;22.20
6486;DHT22;3276;48.490;9.222;2022-11-06T12:12:55;8.40;22.30
6486;DHT22;3276;48.490;9.222;2022-11-06T12:15:31;8.50;22.40
6486;DHT22;3276;48.490;9.222;2022-11-06T12:18:10;8.60;22.00
6486;DHT22;3276;48.490;9.222;2022-11-06T12:23:25;8.80;21.30
6486;DHT22;3276;48.490;9.222;2022-11-06T12:26:03;8.90;21.70
6486;DHT22;3276;48.490;9.222;2022-11-06T12:28:32;9.00;21.30
6486;DHT22;3276;48.490;9.222;2022-11-06T12:31:03;9.00;21.50
6486;DHT22;3276;48.490;9.222;2022-11-06T12:33:30;9.10;21.40
6486;DHT22;3276;48.490;9.222;2022-11-06T12:35:58;9.30;21.10
6486;DHT22;3276;48.490;9.222;2022-11-06T12:38:43;9.30;20.90
6486;DHT22;3276;48.490;9.222;2022-11-06T12:41:34;9.30;21.10
6486;DHT22;3276;48.490;9.222;2022-11-06T12:44:02;9.40;21.30
6486;DHT22;3276;48.490;9.222;2022-11-06T12:55:04;9.70;20.70
6486;DHT22;3276;48.490;9.222;2022-11-06T13:00:20;10.10;20.20
6486;DHT22;3276;48.490;9.222;2022-11-06T13:03:27;10.20;20.00
6486;DHT22;3276;48.490;9.222;2022-11-06T13:09:01;10.40;19.10
6486;DHT22;3276;48.490;9.222;2022-11-06T13:11:47;10.60;18.80
6486;DHT22;3276;48.490;9.222;2022-11-06T13:17:54;10.60;18.80
6486;DHT22;3276;48.490;9.222;2022-11-06T13:23:28;10.80;18.90
6486;DHT22;3276;48.490;9.222;2022-11-06T13:28:56;10.80;18.30
6486;DHT22;3276;48.490;9.222;2022-11-06T13:31:28;10.90;18.10
6486;DHT22;3276;48.490;9.222;2022-11-06T13:33:57;10.90;17.30
6486;DHT22;3276;48.490;9.222;2022-11-06T13:36:25;11.10;17.00
6486;DHT22;3276;48.490;9.222;2022-11-06T13:39:02;11.20;16.00
6486;DHT22;3276;48.490;9.222;2022-11-06T13:41:31;11.10;16.90
6486;DHT22;3276;48.490;9.222;2022-11-06T13:44:00;11.00;16.70
6486;DHT22;3276;48.490;9.222;2022-11-06T13:46:29;11.10;17.10
6486;DHT22;3276;48.490;9.222;2022-11-06T13:54:17;11.10;17.20
6486;DHT22;3276;48.490;9.222;2022-11-06T13:57:10;10.90;15.80
6486;DHT22;3276;48.490;9.222;2022-11-06T14:08:05;10.80;11.90
6486;DHT22;3276;48.490;9.222;2022-11-06T14:10:35;10.70;12.10
6486;DHT22;3276;48.490;9.222;2022-11-06T14:13:04;10.70;11.50
6486;DHT22;3276;48.490;9.222;2022-11-06T14:15:38;10.70;12.40
6486;DHT22;3276;48.490;9.222;2022-11-06T14:18:13;10.60;12.50
6486;DHT22;3276;48.490;9.222;2022-11-06T14:20:44;10.50;13.10
6486;DHT22;3276;48.490;9.222;2022-11-06T14:26:02;10.50;13.10
6486;DHT22;3276;48.490;9.222;2022-11-06T14:28:30;10.50;13.40
6486;DHT22;3276;48.490;9.222;2022-11-06T14:30:56;10.40;13.90
6486;DHT22;3276;48.490;9.222;2022-11-06T14:38:51;10.20;13.60
6486;DHT22;3276;48.490;9.222;2022-11-06T14:46:48;10.30;13.70
6486;DHT22;3276;48.490;9.222;2022-11-06T14:52:04;10.00;14.00
6486;DHT22;3276;48.490;9.222;2022-11-06T14:54:38;9.90;15.30
6486;DHT22;3276;48.490;9.222;2022-11-06T14:57:13;9.90;14.70
6486;DHT22;3276;48.490;9.222;2022-11-06T14:59:45;9.80;14.70
6486;DHT22;3276;48.490;9.222;2022-11-06T15:02:22;9.70;14.80
6486;DHT22;3276;48.490;9.222;2022-11-06T15:05:00;9.60;15.20
6486;DHT22;3276;48.490;9.222;2022-11-06T15:10:03;9.50;16.30
6486;DHT22;3276;48.490;9.222;2022-11-06T15:15:33;9.40;16.50
6486;DHT22;3276;48.490;9.222;2022-11-06T15:18:12;9.30;16.80
6486;DHT22;3276;48.490;9.222;2022-11-06T15:20:39;9.30;17.00
6486;DHT22;3276;48.490;9.222;2022-11-06T15:23:21;9.20;17.20
6486;DHT22;3276;48.490;9.222;2022-11-06T15:28:32;9.00;17.90
6486;DHT22;3276;48.490;9.222;2022-11-06T15:31:06;8.90;18.20
6486;DHT22;3276;48.490;9.222;2022-11-06T15:33:44;8.80;18.30
6486;DHT22;3276;48.490;9.222;2022-11-06T15:36:16;8.80;18.50
6486;DHT22;3276;48.490;9.222;2022-11-06T15:38:43;8.60;19.00
6486;DHT22;3276;48.490;9.222;2022-11-06T15:41:38;8.50;19.50
6486;DHT22;3276;48.490;9.222;2022-11-06T15:44:04;8.30;19.80
6486;DHT22;3276;48.490;9.222;2022-11-06T15:46:29;8.20;20.10
6486;DHT22;3276;48.490;9.222;2022-11-06T15:49:27;8.20;20.50
6486;DHT22;3276;48.490;9.222;2022-11-06T15:51:58;8.10;20.90
6486;DHT22;3276;48.490;9.222;2022-11-06T15:54:40;8.10;20.70
6486;DHT22;3276;48.490;9.222;2022-11-06T15:57:21;8.10;20.30
6486;DHT22;3276;48.490;9.222;2022-11-06T15:59:48;8.10;20.50
6486;DHT22;3276;48.490;9.222;2022-11-06T16:02:19;8.10;20.60
6486;DHT22;3276;48.490;9.222;2022-11-06T16:04:46;8.10;20.70
6486;DHT22;3276;48.490;9.222;2022-11-06T16:07:12;8.10;20.80
6486;DHT22;3276;48.490;9.222;2022-11-06T16:09:40;8.00;20.80
6486;DHT22;3276;48.490;9.222;2022-11-06T16:12:06;8.00;20.80
6486;DHT22;3276;48.490;9.222;2022-11-06T16:14:36;8.00;21.10
6486;DHT22;3276;48.490;9.222;2022-11-06T16:17:17;8.00;21.10
6486;DHT22;3276;48.490;9.222;2022-11-06T16:19:46;8.00;20.60
6486;DHT22;3276;48.490;9.222;2022-11-06T16:22:16;8.00;20.60
6486;DHT22;3276;48.490;9.222;2022-11-06T16:24:46;8.10;20.20
6486;DHT22;3276;48.490;9.222;2022-11-06T16:27:13;8.10;20.50
6486;DHT22;3276;48.490;9.222;2022-11-06T16:29:45;8.10;20.50
6486;DHT22;3276;48.490;9.222;2022-11-06T16:32:18;8.00;20.60
6486;DHT22;3276;48.490;9.222;2022-11-06T16:34:45;8.00;20.10
6486;DHT22;3276;48.490;9.222;2022-11-06T16:49:40;8.30;18.00
6486;DHT22;3276;48.490;9.222;2022-11-06T16:57:56;8.40;18.10
6486;DHT22;3276;48.490;9.222;2022-11-06T17:00:31;8.50;17.80
6486;DHT22;3276;48.490;9.222;2022-11-06T17:05:29;8.50;17.30
6486;DHT22;3276;48.490;9.222;2022-11-06T17:10:47;8.60;16.90
6486;DHT22;3276;48.490;9.222;2022-11-06T17:15:48;8.70;16.20
6486;DHT22;3276;48.490;9.222;2022-11-06T17:18:24;8.70;15.50
6486;DHT22;3276;48.490;9.222;2022-11-06T17:20:56;8.80;15.40
6486;DHT22;3276;48.490;9.222;2022-11-06T17:23:22;8.80;15.90
6486;DHT22;3276;48.490;9.222;2022-11-06T17:25:49;8.80;15.90
6486;DHT22;3276;48.490;9.222;2022-11-06T17:28:15;8.80;15.20
6486;DHT22;3276;48.490;9.222;2022-11-06T17:30:43;8.80;15.60
6486;DHT22;3276;48.490;9.222;2022-11-06T17:33:09;8.90;15.40
6486;DHT22;3276;48.490;9.222;2022-11-06T17:35:35;9.00;14.70
6486;DHT22;3276;48.490;9.222;2022-11-06T17:38:00;9.00;14.80
6486;DHT22;3276;48.490;9.222;2022-11-06T17:40:26;9.00;14.60
6486;DHT22;3276;48.490;9.222;2022-11-06T17:42:52;9.00;14.20
6486;DHT22;3276;48.490;9.222;2022-11-06T17:45:17;9.00;14.20
6486;DHT22;3276;48.490;9.222;2022-11-06T17:47:43;9.00;13.40
6486;DHT22;3276;48.490;9.222;2022-11-06T17:50:08;9.10;12.60
6486;DHT22;3276;48.490;9.222;2022-11-06T17:52:34;9.20;12.40
6486;DHT22;3276;48.490;9.222;2022-11-06T17:54:59;9.10;11.90
6486;DHT22;3276;48.490;9.222;2022-11-06T17:57:25;9.20;12.40
6486;DHT22;3276;48.490;9.222;2022-11-06T17:59:50;9.20;12.50
6486;DHT22;3276;48.490;9.222;2022-11-06T18:02:16;9.20;13.40
6486;DHT22;3276;48.490;9.222;2022-11-06T18:04:42;9.20;12.30
6486;DHT22;3276;48.490;9.222;2022-11-06T18:07:08;9.20;12.10
6486;DHT22;3276;48.490;9.222;2022-11-06T18:09:34;9.20;12.60
6486;DHT22;3276;48.490;9.222;2022-11-06T18:12:04;9.20;12.90
6486;DHT22;3276;48.490;9.222;2022-11-06T18:14:30;9.20;13.40
6486;DHT22;3276;48.490;9.222;2022-11-06T18:16:55;9.10;13.80
6486;DHT22;3276;48.490;9.222;2022-11-06T18:19:22;9.10;14.20
6486;DHT22;3276;48.490;9.222;2022-11-06T18:21:48;9.00;14.20
6486;DHT22;3276;48.490;9.222;2022-11-06T18:24:14;9.00;14.20
6486;DHT22;3276;48.490;9.222;2022-11-06T18:26:40;9.00;14.70
6486;DHT22;3276;48.490;9.222;2022-11-06T18:29:06;9.00;15.30
6486;DHT22;3276;48.490;9.222;2022-11-06T18:31:33;8.80;16.20
6486;DHT22;3276;48.490;9.222;2022-11-06T18:33:58;8.80;16.40
6486;DHT22;3276;48.490;9.222;2022-11-06T18:36:24;8.80;17.30
6486;DHT22;3276;48.490;9.222;2022-11-06T18:38:50;8.80;17.60
6486;DHT22;3276;48.490;9.222;2022-11-06T18:41:18;8.80;17.30
6486;DHT22;3276;48.490;9.222;2022-11-06T18:43:44;8.80;17.50
6486;DHT22;3276;48.490;9.222;2022-11-06T18:46:12;9.00;17.20
6486;DHT22;3276;48.490;9.222;2022-11-06T18:48:38;8.90;16.30
6486;DHT22;3276;48.490;9.222;2022-11-06T18:51:10;9.00;16.30
6486;DHT22;3276;48.490;9.222;2022-11-06T18:53:36;9.10;15.80
6486;DHT22;3276;48.490;9.222;2022-11-06T18:56:03;9.00;15.30
6486;DHT22;3276;48.490;9.222;2022-11-06T18:58:28;9.00;15.10
6486;DHT22;3276;48.490;9.222;2022-11-06T19:00:54;9.10;15.00
6486;DHT22;3276;48.490;9.222;2022-11-06T19:03:20;9.20;14.60
6486;DHT22;3276;48.490;9.222;2022-11-06T19:05:50;9.20;15.30